sensor_id;sensor_type;location;lat;lon;timestamp;P1;durP1;ratioP1;P2;durP2;ratioP2
67747;SDS011;54543;50.712;6.070;2023-02-26T00:00:22;3.25;;;1.40;;
67747;SDS011;54543;50.712;6.070;2023-02-26T00:02:48;6.03;;;1.48;;
67747;SDS011;54543;50.712;6.070;2023-02-26T00:05:14;1.48;;;0.88;;
67747;SDS011;54543;50.712;6.070;2023-02-26T00:07:40;2.70;;;1.20;;
67747;SDS011;54543;50.712;6.070;2023-02-26T00:10:07;2.60;;;1.00;;
67747;SDS011;54543;50.712;6.070;2023-02-26T00:12:35;3.05;;;1.42;;
67747;SDS011;54543;50.712;6.070;2023-02-26T00:15:01;1.63;;;0.90;;
67747;SDS011;54543;50.712;6.070;2023-02-26T00:19:56;1.33;;;1.00;;
67747;SDS011;54543;50.712;6.070;2023-02-26T00:22:22;2.05;;;1.13;;
67747;SDS011;54543;50.712;6.070;2023-02-26T00:24:47;3.30;;;1.48;;
67747;SDS011;54543;50.712;6.070;2023-02-26T00:27:13;1.85;;;1.05;;
67747;SDS011;54543;50.712;6.070;2023-02-26T00:29:38;3.83;;;1.65;;
67747;SDS011;54543;50.712;6.070;2023-02-26T00:32:05;2.67;;;1.45;;
67747;SDS011;54543;50.712;6.070;2023-02-26T00:34:33;3.25;;;1.30;;
67747;SDS011;54543;50.712;6.070;2023-02-26T00:42:34;4.00;;;1.75;;
67747;SDS011;54543;50.712;6.070;2023-02-26T00:45:00;2.63;;;1.20;;
67747;SDS011;54543;50.712;6.070;2023-02-26T00:52:41;2.67;;;1.40;;
67747;SDS011;54543;50.712;6.070;2023-02-26T00:55:26;3.40;;;1.30;;
67747;SDS011;54543;50.712;6.070;2023-02-26T00:57:52;4.78;;;1.60;;
67747;SDS011;54543;50.712;6.070;2023-02-26T01:00:17;3.97;;;2.00;;
67747;SDS011;54543;50.712;6.070;2023-02-26T01:02:44;3.63;;;1.77;;
67747;SDS011;54543;50.712;6.070;2023-02-26T01:05:10;4.20;;;1.90;;
67747;SDS011;54543;50.712;6.070;2023-02-26T01:07:41;2.78;;;1.70;;
67747;SDS011;54543;50.712;6.070;2023-02-26T01:10:18;3.90;;;1.65;;
67747;SDS011;54543;50.712;6.070;2023-02-26T01:12:44;3.00;;;1.60;;
67747;SDS011;54543;50.712;6.070;2023-02-26T01:15:10;4.47;;;1.42;;
67747;SDS011;54543;50.712;6.070;2023-02-26T01:18:19;3.15;;;1.42;;
67747;SDS011;54543;50.712;6.070;2023-02-26T01:20:36;2.30;;;1.27;;
67747;SDS011;54543;50.712;6.070;2023-02-26T01:23:25;2.65;;;1.25;;
67747;SDS011;54543;50.712;6.070;2023-02-26T01:25:57;1.48;;;1.10;;
67747;SDS011;54543;50.712;6.070;2023-02-26T01:28:26;1.13;;;1.02;;
67747;SDS011;54543;50.712;6.070;2023-02-26T01:30:52;3.38;;;1.23;;
67747;SDS011;54543;50.712;6.070;2023-02-26T01:33:28;2.65;;;1.33;;
67747;SDS011;54543;50.712;6.070;2023-02-26T01:36:02;3.33;;;1.40;;
67747;SDS011;54543;50.712;6.070;2023-02-26T01:41:38;2.58;;;1.35;;
67747;SDS011;54543;50.712;6.070;2023-02-26T01:49:11;3.70;;;1.25;;
67747;SDS011;54543;50.712;6.070;2023-02-26T01:54:22;1.92;;;0.98;;
67747;SDS011;54543;50.712;6.070;2023-02-26T01:56:57;4.18;;;1.10;;
67747;SDS011;54543;50.712;6.070;2023-02-26T01:59:29;1.83;;;1.00;;
67747;SDS011;54543;50.712;6.070;2023-02-26T02:01:56;2.00;;;1.17;;
67747;SDS011;54543;50.712;6.070;2023-02-26T02:04:23;1.85;;;1.08;;
67747;SDS011;54543;50.712;6.070;2023-02-26T02:06:49;2.60;;;1.10;;
67747;SDS011;54543;50.712;6.070;2023-02-26T02:09:16;3.50;;;1.48;;
67747;SDS011;54543;50.712;6.070;2023-02-26T02:14:41;1.83;;;0.98;;
67747;SDS011;54543;50.712;6.070;2023-02-26T02:28:19;1.15;;;0.82;;
67747;SDS011;54543;50.712;6.070;2023-02-26T02:31:21;2.58;;;1.33;;
67747;SDS011;54543;50.712;6.070;2023-02-26T02:36:28;2.28;;;0.93;;
67747;SDS011;54543;50.712;6.070;2023-02-26T02:39:10;1.70;;;1.10;;
67747;SDS011;54543;50.712;6.070;2023-02-26T02:44:49;1.30;;;0.80;;
67747;SDS011;54543;50.712;6.070;2023-02-26T02:47:20;0.90;;;0.80;;
67747;SDS011;54543;50.712;6.070;2023-02-26T02:49:50;2.30;;;1.02;;
67747;SDS011;54543;50.712;6.070;2023-02-26T02:55:05;1.20;;;1.10;;
67747;SDS011;54543;50.712;6.070;2023-02-26T02:57:38;3.17;;;1.00;;
67747;SDS011;54543;50.712;6.070;2023-02-26T03:00:09;1.73;;;1.00;;
67747;SDS011;54543;50.712;6.070;2023-02-26T03:05:17;3.70;;;0.98;;
67747;SDS011;54543;50.712;6.070;2023-02-26T03:07:50;1.42;;;0.80;;
67747;SDS011;54543;50.712;6.070;2023-02-26T03:10:19;2.65;;;1.10;;
67747;SDS011;54543;50.712;6.070;2023-02-26T03:12:45;1.00;;;0.88;;
67747;SDS011;54543;50.712;6.070;2023-02-26T03:15:11;2.20;;;1.40;;
67747;SDS011;54543;50.712;6.070;2023-02-26T03:20:37;1.38;;;1.00;;
67747;SDS011;54543;50.712;6.070;2023-02-26T03:23:13;1.00;;;0.88;;
67747;SDS011;54543;50.712;6.070;2023-02-26T03:25:50;1.23;;;0.85;;
67747;SDS011;54543;50.712;6.070;2023-02-26T03:31:20;1.75;;;1.00;;
67747;SDS011;54543;50.712;6.070;2023-02-26T03:34:07;2.45;;;1.08;;
67747;SDS011;54543;50.712;6.070;2023-02-26T03:36:53;3.20;;;1.00;;
67747;SDS011;54543;50.712;6.070;2023-02-26T03:39:28;1.42;;;0.98;;
67747;SDS011;54543;50.712;6.070;2023-02-26T03:42:03;1.70;;;1.10;;
67747;SDS011;54543;50.712;6.070;2023-02-26T03:44:41;1.52;;;1.02;;
67747;SDS011;54543;50.712;6.070;2023-02-26T03:47:11;1.45;;;0.90;;
67747;SDS011;54543;50.712;6.070;2023-02-26T03:49:41;2.00;;;1.00;;
67747;SDS011;54543;50.712;6.070;2023-02-26T03:52:10;3.42;;;1.10;;
67747;SDS011;54543;50.712;6.070;2023-02-26T03:54:38;1.52;;;1.08;;
67747;SDS011;54543;50.712;6.070;2023-02-26T03:57:07;0.95;;;0.80;;
67747;SDS011;54543;50.712;6.070;2023-02-26T03:59:33;1.67;;;0.88;;
67747;SDS011;54543;50.712;6.070;2023-02-26T04:04:44;1.70;;;1.13;;
67747;SDS011;54543;50.712;6.070;2023-02-26T04:07:16;2.20;;;1.00;;
67747;SDS011;54543;50.712;6.070;2023-02-26T04:09:43;1.80;;;1.10;;
67747;SDS011;54543;50.712;6.070;2023-02-26T04:12:11;1.10;;;1.00;;
67747;SDS011;54543;50.712;6.070;2023-02-26T04:14:36;1.73;;;1.00;;
67747;SDS011;54543;50.712;6.070;2023-02-26T04:17:02;1.52;;;1.00;;
67747;SDS011;54543;50.712;6.070;2023-02-26T04:19:28;2.25;;;1.00;;
67747;SDS011;54543;50.712;6.070;2023-02-26T04:21:54;1.77;;;1.10;;
67747;SDS011;54543;50.712;6.070;2023-02-26T04:24:19;2.38;;;1.05;;
67747;SDS011;54543;50.712;6.070;2023-02-26T04:26:45;1.05;;;0.82;;
67747;SDS011;54543;50.712;6.070;2023-02-26T04:29:10;1.35;;;1.00;;
67747;SDS011;54543;50.712;6.070;2023-02-26T04:31:36;4.65;;;1.23;;
67747;SDS011;54543;50.712;6.070;2023-02-26T04:34:02;2.10;;;1.00;;
67747;SDS011;54543;50.712;6.070;2023-02-26T04:36:28;1.08;;;0.77;;
67747;SDS011;54543;50.712;6.070;2023-02-26T04:38:53;2.25;;;1.00;;
67747;SDS011;54543;50.712;6.070;2023-02-26T04:41:19;1.67;;;0.95;;
67747;SDS011;54543;50.712;6.070;2023-02-26T04:43:45;2.50;;;0.80;;
67747;SDS011;54543;50.712;6.070;2023-02-26T04:46:10;2.58;;;0.80;;
67747;SDS011;54543;50.712;6.070;2023-02-26T04:48:36;1.00;;;0.90;;
67747;SDS011;54543;50.712;6.070;2023-02-26T04:51:02;0.95;;;0.75;;
67747;SDS011;54543;50.712;6.070;2023-02-26T04:53:27;2.03;;;0.90;;
67747;SDS011;54543;50.712;6.070;2023-02-26T04:55:53;2.30;;;0.80;;
67747;SDS011;54543;50.712;6.070;2023-02-26T04:58:18;1.00;;;0.80;;
67747;SDS011;54543;50.712;6.070;2023-02-26T05:00:47;1.52;;;0.88;;
67747;SDS011;54543;50.712;6.070;2023-02-26T05:03:16;1.70;;;0.80;;
67747;SDS011;54543;50.712;6.070;2023-02-26T05:05:42;3.60;;;1.10;;
67747;SDS011;54543;50.712;6.070;2023-02-26T05:08:08;2.08;;;1.23;;
67747;SDS011;54543;50.712;6.070;2023-02-26T05:10:34;1.17;;;0.88;;
67747;SDS011;54543;50.712;6.070;2023-02-26T05:12:59;1.75;;;0.90;;
67747;SDS011;54543;50.712;6.070;2023-02-26T05:15:25;1.30;;;1.20;;
67747;SDS011;54543;50.712;6.070;2023-02-26T05:17:50;1.23;;;0.75;;
67747;SDS011;54543;50.712;6.070;2023-02-26T05:20:16;1.77;;;1.10;;
67747;SDS011;54543;50.712;6.070;2023-02-26T05:22:42;1.38;;;0.70;;
67747;SDS011;54543;50.712;6.070;2023-02-26T05:25:08;2.22;;;1.00;;
67747;SDS011;54543;50.712;6.070;2023-02-26T05:27:35;2.15;;;0.90;;
67747;SDS011;54543;50.712;6.070;2023-02-26T05:30:01;0.80;;;0.80;;
67747;SDS011;54543;50.712;6.070;2023-02-26T05:32:27;3.35;;;0.90;;
67747;SDS011;54543;50.712;6.070;2023-02-26T05:34:53;0.90;;;0.80;;
67747;SDS011;54543;50.712;6.070;2023-02-26T05:37:18;1.88;;;1.00;;
67747;SDS011;54543;50.712;6.070;2023-02-26T05:39:44;1.75;;;1.00;;
67747;SDS011;54543;50.712;6.070;2023-02-26T05:42:09;1.70;;;0.80;;
67747;SDS011;54543;50.712;6.070;2023-02-26T05:44:35;2.03;;;1.10;;
67747;SDS011;54543;50.712;6.070;2023-02-26T05:47:00;1.45;;;0.90;;
67747;SDS011;54543;50.712;6.070;2023-02-26T05:49:26;1.15;;;0.80;;
67747;SDS011;54543;50.712;6.070;2023-02-26T05:51:52;1.92;;;0.80;;
67747;SDS011;54543;50.712;6.070;2023-02-26T05:54:17;1.30;;;0.85;;
67747;SDS011;54543;50.712;6.070;2023-02-26T05:56:43;2.13;;;1.10;;
67747;SDS011;54543;50.712;6.070;2023-02-26T05:59:09;1.45;;;0.80;;
67747;SDS011;54543;50.712;6.070;2023-02-26T06:01:35;0.93;;;0.80;;
67747;SDS011;54543;50.712;6.070;2023-02-26T06:04:01;1.50;;;0.85;;
67747;SDS011;54543;50.712;6.070;2023-02-26T06:06:28;1.50;;;1.02;;
67747;SDS011;54543;50.712;6.070;2023-02-26T06:08:54;1.13;;;0.77;;
67747;SDS011;54543;50.712;6.070;2023-02-26T06:11:19;1.63;;;1.02;;
67747;SDS011;54543;50.712;6.070;2023-02-26T06:13:45;0.88;;;0.60;;
67747;SDS011;54543;50.712;6.070;2023-02-26T06:16:10;0.77;;;0.75;;
67747;SDS011;54543;50.712;6.070;2023-02-26T06:18:36;1.80;;;0.95;;
67747;SDS011;54543;50.712;6.070;2023-02-26T06:21:01;1.48;;;0.90;;
67747;SDS011;54543;50.712;6.070;2023-02-26T06:23:27;0.93;;;0.80;;
67747;SDS011;54543;50.712;6.070;2023-02-26T06:25:53;1.20;;;1.02;;
67747;SDS011;54543;50.712;6.070;2023-02-26T06:28:18;1.25;;;0.90;;
67747;SDS011;54543;50.712;6.070;2023-02-26T06:30:44;1.02;;;0.70;;
67747;SDS011;54543;50.712;6.070;2023-02-26T06:33:11;2.33;;;1.38;;
67747;SDS011;54543;50.712;6.070;2023-02-26T06:35:36;2.95;;;0.93;;
67747;SDS011;54543;50.712;6.070;2023-02-26T06:38:02;2.42;;;1.05;;
67747;SDS011;54543;50.712;6.070;2023-02-26T06:40:28;1.52;;;0.80;;
67747;SDS011;54543;50.712;6.070;2023-02-26T06:42:54;1.38;;;0.88;;
67747;SDS011;54543;50.712;6.070;2023-02-26T06:45:21;1.80;;;1.20;;
67747;SDS011;54543;50.712;6.070;2023-02-26T06:47:47;3.10;;;1.05;;
67747;SDS011;54543;50.712;6.070;2023-02-26T06:50:12;1.20;;;0.80;;
67747;SDS011;54543;50.712;6.070;2023-02-26T06:52:38;1.08;;;0.60;;
67747;SDS011;54543;50.712;6.070;2023-02-26T06:55:03;2.97;;;0.85;;
67747;SDS011;54543;50.712;6.070;2023-02-26T06:57:29;0.90;;;0.70;;
67747;SDS011;54543;50.712;6.070;2023-02-26T06:59:55;1.10;;;0.80;;
67747;SDS011;54543;50.712;6.070;2023-02-26T07:02:21;1.25;;;0.90;;
67747;SDS011;54543;50.712;6.070;2023-02-26T07:04:47;1.35;;;0.93;;
67747;SDS011;54543;50.712;6.070;2023-02-26T07:07:13;1.42;;;0.80;;
67747;SDS011;54543;50.712;6.070;2023-02-26T07:09:39;1.52;;;0.90;;
67747;SDS011;54543;50.712;6.070;2023-02-26T07:12:05;4.80;;;1.15;;
67747;SDS011;54543;50.712;6.070;2023-02-26T07:14:31;1.85;;;1.10;;
67747;SDS011;54543;50.712;6.070;2023-02-26T07:16:58;1.30;;;0.82;;
67747;SDS011;54543;50.712;6.070;2023-02-26T07:19:24;1.27;;;0.75;;
67747;SDS011;54543;50.712;6.070;2023-02-26T07:21:50;2.05;;;0.88;;
67747;SDS011;54543;50.712;6.070;2023-02-26T07:24:15;1.85;;;0.98;;
67747;SDS011;54543;50.712;6.070;2023-02-26T07:26:41;2.65;;;1.10;;
67747;SDS011;54543;50.712;6.070;2023-02-26T07:29:07;2.65;;;0.90;;
67747;SDS011;54543;50.712;6.070;2023-02-26T07:31:32;3.60;;;0.98;;
67747;SDS011;54543;50.712;6.070;2023-02-26T07:33:58;2.17;;;0.93;;
67747;SDS011;54543;50.712;6.070;2023-02-26T07:36:23;1.95;;;0.85;;
67747;SDS011;54543;50.712;6.070;2023-02-26T07:38:49;1.23;;;0.80;;
67747;SDS011;54543;50.712;6.070;2023-02-26T07:41:15;1.35;;;1.10;;
67747;SDS011;54543;50.712;6.070;2023-02-26T07:43:40;3.30;;;1.40;;
67747;SDS011;54543;50.712;6.070;2023-02-26T07:46:06;2.90;;;1.40;;
67747;SDS011;54543;50.712;6.070;2023-02-26T07:48:33;2.50;;;1.23;;
67747;SDS011;54543;50.712;6.070;2023-02-26T07:50:59;1.55;;;1.05;;
67747;SDS011;54543;50.712;6.070;2023-02-26T07:53:24;1.13;;;1.00;;
67747;SDS011;54543;50.712;6.070;2023-02-26T07:55:50;3.03;;;0.98;;
67747;SDS011;54543;50.712;6.070;2023-02-26T07:58:16;2.78;;;0.90;;
67747;SDS011;54543;50.712;6.070;2023-02-26T08:00:42;2.00;;;1.00;;
67747;SDS011;54543;50.712;6.070;2023-02-26T08:03:07;2.22;;;1.15;;
67747;SDS011;54543;50.712;6.070;2023-02-26T08:05:32;2.38;;;1.20;;
67747;SDS011;54543;50.712;6.070;2023-02-26T08:07:59;2.05;;;1.10;;
67747;SDS011;54543;50.712;6.070;2023-02-26T08:10:26;1.38;;;1.10;;
67747;SDS011;54543;50.712;6.070;2023-02-26T08:12:52;2.08;;;1.30;;
67747;SDS011;54543;50.712;6.070;2023-02-26T08:15:17;5.82;;;1.77;;
67747;SDS011;54543;50.712;6.070;2023-02-26T08:17:43;2.33;;;1.42;;
67747;SDS011;54543;50.712;6.070;2023-02-26T08:20:09;2.45;;;1.20;;
67747;SDS011;54543;50.712;6.070;2023-02-26T08:22:36;3.35;;;1.55;;
67747;SDS011;54543;50.712;6.070;2023-02-26T08:25:02;3.20;;;1.13;;
67747;SDS011;54543;50.712;6.070;2023-02-26T08:27:28;3.70;;;1.50;;
67747;SDS011;54543;50.712;6.070;2023-02-26T08:29:54;2.97;;;1.30;;
67747;SDS011;54543;50.712;6.070;2023-02-26T08:32:19;2.03;;;1.20;;
67747;SDS011;54543;50.712;6.070;2023-02-26T08:34:46;3.22;;;1.40;;
67747;SDS011;54543;50.712;6.070;2023-02-26T08:37:12;2.25;;;1.05;;
67747;SDS011;54543;50.712;6.070;2023-02-26T08:39:38;1.75;;;1.10;;
67747;SDS011;54543;50.712;6.070;2023-02-26T08:42:04;1.65;;;1.15;;
67747;SDS011;54543;50.712;6.070;2023-02-26T08:44:31;2.20;;;1.30;;
67747;SDS011;54543;50.712;6.070;2023-02-26T08:46:57;1.67;;;1.05;;
67747;SDS011;54543;50.712;6.070;2023-02-26T08:49:22;1.70;;;1.17;;
67747;SDS011;54543;50.712;6.070;2023-02-26T08:51:48;2.38;;;1.25;;
67747;SDS011;54543;50.712;6.070;2023-02-26T08:54:13;5.43;;;1.88;;
67747;SDS011;54543;50.712;6.070;2023-02-26T08:56:39;3.22;;;1.67;;
67747;SDS011;54543;50.712;6.070;2023-02-26T08:59:05;2.33;;;1.58;;
67747;SDS011;54543;50.712;6.070;2023-02-26T09:01:31;5.22;;;1.65;;
67747;SDS011;54543;50.712;6.070;2023-02-26T09:03:56;3.45;;;1.60;;
67747;SDS011;54543;50.712;6.070;2023-02-26T09:06:22;2.35;;;1.50;;
67747;SDS011;54543;50.712;6.070;2023-02-26T09:08:48;2.70;;;1.50;;
67747;SDS011;54543;50.712;6.070;2023-02-26T09:11:13;2.17;;;1.42;;
67747;SDS011;54543;50.712;6.070;2023-02-26T09:13:39;4.20;;;1.80;;
67747;SDS011;54543;50.712;6.070;2023-02-26T09:16:05;2.58;;;1.75;;
67747;SDS011;54543;50.712;6.070;2023-02-26T09:18:32;2.92;;;1.52;;
67747;SDS011;54543;50.712;6.070;2023-02-26T09:20:57;2.72;;;1.70;;
67747;SDS011;54543;50.712;6.070;2023-02-26T09:23:23;5.10;;;1.80;;
67747;SDS011;54543;50.712;6.070;2023-02-26T09:25:52;2.88;;;1.75;;
67747;SDS011;54543;50.712;6.070;2023-02-26T09:28:19;3.08;;;1.77;;
67747;SDS011;54543;50.712;6.070;2023-02-26T09:30:46;2.70;;;1.67;;
67747;SDS011;54543;50.712;6.070;2023-02-26T09:33:12;2.88;;;1.85;;
67747;SDS011;54543;50.712;6.070;2023-02-26T09:35:37;3.40;;;1.90;;
67747;SDS011;54543;50.712;6.070;2023-02-26T09:38:03;4.32;;;1.98;;
67747;SDS011;54543;50.712;6.070;2023-02-26T09:45:47;4.00;;;1.90;;
67747;SDS011;54543;50.712;6.070;2023-02-26T09:48:16;2.08;;;1.45;;
67747;SDS011;54543;50.712;6.070;2023-02-26T09:50:55;2.28;;;1.50;;
67747;SDS011;54543;50.712;6.070;2023-02-26T09:53:23;4.45;;;1.80;;
67747;SDS011;54543;50.712;6.070;2023-02-26T09:55:54;2.97;;;1.77;;
67747;SDS011;54543;50.712;6.070;2023-02-26T10:01:11;3.28;;;1.48;;
67747;SDS011;54543;50.712;6.070;2023-02-26T10:06:28;2.73;;;1.60;;
67747;SDS011;54543;50.712;6.070;2023-02-26T10:14:31;2.47;;;1.67;;
67747;SDS011;54543;50.712;6.070;2023-02-26T10:17:39;3.33;;;1.40;;
67747;SDS011;54543;50.712;6.070;2023-02-26T10:19:55;4.85;;;1.40;;
67747;SDS011;54543;50.712;6.070;2023-02-26T10:22:36;1.42;;;1.10;;
67747;SDS011;54543;50.712;6.070;2023-02-26T10:25:16;1.67;;;1.23;;
67747;SDS011;54543;50.712;6.070;2023-02-26T10:27:48;2.15;;;1.42;;
67747;SDS011;54543;50.712;6.070;2023-02-26T10:30:30;2.58;;;1.10;;
67747;SDS011;54543;50.712;6.070;2023-02-26T10:35:40;1.88;;;1.10;;
67747;SDS011;54543;50.712;6.070;2023-02-26T10:38:12;3.38;;;1.40;;
67747;SDS011;54543;50.712;6.070;2023-02-26T10:41:17;1.30;;;0.90;;
67747;SDS011;54543;50.712;6.070;2023-02-26T10:43:38;2.97;;;1.42;;
67747;SDS011;54543;50.712;6.070;2023-02-26T10:51:11;1.85;;;1.00;;
67747;SDS011;54543;50.712;6.070;2023-02-26T10:53:42;4.18;;;1.52;;
67747;SDS011;54543;50.712;6.070;2023-02-26T10:56:20;1.42;;;0.98;;
67747;SDS011;54543;50.712;6.070;2023-02-26T10:58:50;2.53;;;1.30;;
67747;SDS011;54543;50.712;6.070;2023-02-26T11:01:18;1.55;;;0.90;;
67747;SDS011;54543;50.712;6.070;2023-02-26T11:03:46;2.10;;;1.33;;
67747;SDS011;54543;50.712;6.070;2023-02-26T11:06:17;2.47;;;1.17;;
67747;SDS011;54543;50.712;6.070;2023-02-26T11:08:46;1.77;;;1.35;;
67747;SDS011;54543;50.712;6.070;2023-02-26T11:12:00;1.23;;;1.10;;
67747;SDS011;54543;50.712;6.070;2023-02-26T11:14:05;1.65;;;1.20;;
67747;SDS011;54543;50.712;6.070;2023-02-26T11:16:32;1.17;;;0.93;;
67747;SDS011;54543;50.712;6.070;2023-02-26T11:18:59;1.73;;;1.15;;
67747;SDS011;54543;50.712;6.070;2023-02-26T11:21:27;1.15;;;1.00;;
67747;SDS011;54543;50.712;6.070;2023-02-26T11:24:00;2.70;;;1.10;;
67747;SDS011;54543;50.712;6.070;2023-02-26T11:26:31;2.20;;;1.35;;
67747;SDS011;54543;50.712;6.070;2023-02-26T11:29:00;2.38;;;1.10;;
67747;SDS011;54543;50.712;6.070;2023-02-26T11:31:26;1.52;;;1.20;;
67747;SDS011;54543;50.712;6.070;2023-02-26T11:33:52;2.20;;;1.20;;
67747;SDS011;54543;50.712;6.070;2023-02-26T11:36:24;3.10;;;1.80;;
67747;SDS011;54543;50.712;6.070;2023-02-26T11:39:04;2.22;;;1.50;;
67747;SDS011;54543;50.712;6.070;2023-02-26T11:41:43;3.10;;;1.50;;
67747;SDS011;54543;50.712;6.070;2023-02-26T11:44:12;2.67;;;1.30;;
67747;SDS011;54543;50.712;6.070;2023-02-26T11:46:49;2.03;;;1.30;;
67747;SDS011;54543;50.712;6.070;2023-02-26T11:49:17;3.20;;;1.30;;
67747;SDS011;54543;50.712;6.070;2023-02-26T11:51:46;2.42;;;1.20;;
67747;SDS011;54543;50.712;6.070;2023-02-26T11:54:21;3.20;;;1.50;;
67747;SDS011;54543;50.712;6.070;2023-02-26T11:56:48;1.97;;;1.50;;
67747;SDS011;54543;50.712;6.070;2023-02-26T11:59:18;1.92;;;1.38;;
67747;SDS011;54543;50.712;6.070;2023-02-26T12:01:45;2.35;;;1.25;;
67747;SDS011;54543;50.712;6.070;2023-02-26T12:04:12;1.95;;;1.25;;
67747;SDS011;54543;50.712;6.070;2023-02-26T12:06:49;1.60;;;1.30;;
67747;SDS011;54543;50.712;6.070;2023-02-26T12:09:16;1.60;;;1.40;;
67747;SDS011;54543;50.712;6.070;2023-02-26T12:12:05;2.17;;;1.45;;
67747;SDS011;54543;50.712;6.070;2023-02-26T12:53:45;1.40;;;1.02;;
67747;SDS011;54543;50.712;6.070;2023-02-26T12:59:07;1.40;;;1.17;;
67747;SDS011;54543;50.712;6.070;2023-02-26T13:04:34;1.35;;;1.10;;
67747;SDS011;54543;50.712;6.070;2023-02-26T13:07:22;1.50;;;1.08;;
67747;SDS011;54543;50.712;6.070;2023-02-26T13:10:07;1.80;;;1.33;;
67747;SDS011;54543;50.712;6.070;2023-02-26T13:20:56;2.42;;;1.30;;
67747;SDS011;54543;50.712;6.070;2023-02-26T13:23:55;2.42;;;1.58;;
67747;SDS011;54543;50.712;6.070;2023-02-26T13:26:26;2.42;;;1.50;;
67747;SDS011;54543;50.712;6.070;2023-02-26T13:31:29;2.67;;;1.60;;
67747;SDS011;54543;50.712;6.070;2023-02-26T13:34:17;3.30;;;1.70;;
67747;SDS011;54543;50.712;6.070;2023-02-26T13:36:49;3.03;;;1.50;;
67747;SDS011;54543;50.712;6.070;2023-02-26T13:47:35;1.48;;;1.10;;
67747;SDS011;54543;50.712;6.070;2023-02-26T13:53:00;2.13;;;1.42;;
67747;SDS011;54543;50.712;6.070;2023-02-26T14:00:45;2.50;;;1.30;;
67747;SDS011;54543;50.712;6.070;2023-02-26T14:08:20;1.63;;;1.08;;
67747;SDS011;54543;50.712;6.070;2023-02-26T14:11:05;2.15;;;1.20;;
67747;SDS011;54543;50.712;6.070;2023-02-26T14:14:12;2.08;;;1.20;;
67747;SDS011;54543;50.712;6.070;2023-02-26T14:19:32;0.77;;;0.65;;
67747;SDS011;54543;50.712;6.070;2023-02-26T14:24:52;2.05;;;0.90;;
67747;SDS011;54543;50.712;6.070;2023-02-26T14:27:22;2.17;;;1.08;;
67747;SDS011;54543;50.712;6.070;2023-02-26T14:32:31;1.98;;;1.00;;
67747;SDS011;54543;50.712;6.070;2023-02-26T14:35:09;2.10;;;0.90;;
67747;SDS011;54543;50.712;6.070;2023-02-26T14:37:38;2.25;;;0.90;;
67747;SDS011;54543;50.712;6.070;2023-02-26T14:42:44;1.58;;;1.08;;
67747;SDS011;54543;50.712;6.070;2023-02-26T14:47:54;1.42;;;1.10;;
67747;SDS011;54543;50.712;6.070;2023-02-26T14:50:22;0.85;;;0.80;;
67747;SDS011;54543;50.712;6.070;2023-02-26T14:53:00;0.82;;;0.60;;
67747;SDS011;54543;50.712;6.070;2023-02-26T14:55:38;1.25;;;1.00;;
67747;SDS011;54543;50.712;6.070;2023-02-26T14:58:23;1.00;;;0.90;;
67747;SDS011;54543;50.712;6.070;2023-02-26T15:09:23;1.20;;;0.90;;
67747;SDS011;54543;50.712;6.070;2023-02-26T15:17:30;0.95;;;0.60;;
67747;SDS011;54543;50.712;6.070;2023-02-26T15:20:03;0.90;;;0.73;;
67747;SDS011;54543;50.712;6.070;2023-02-26T15:25:26;1.00;;;0.90;;
67747;SDS011;54543;50.712;6.070;2023-02-26T15:27:54;1.95;;;0.95;;
67747;SDS011;54543;50.712;6.070;2023-02-26T15:30:21;2.08;;;1.10;;
67747;SDS011;54543;50.712;6.070;2023-02-26T15:32:47;1.08;;;0.75;;
67747;SDS011;54543;50.712;6.070;2023-02-26T15:35:17;1.35;;;1.08;;
67747;SDS011;54543;50.712;6.070;2023-02-26T15:37:54;3.72;;;1.85;;
67747;SDS011;54543;50.712;6.070;2023-02-26T15:40:23;3.92;;;1.60;;
67747;SDS011;54543;50.712;6.070;2023-02-26T15:42:52;4.00;;;1.52;;
67747;SDS011;54543;50.712;6.070;2023-02-26T15:45:33;1.40;;;1.17;;
67747;SDS011;54543;50.712;6.070;2023-02-26T15:48:13;1.45;;;1.20;;
67747;SDS011;54543;50.712;6.070;2023-02-26T15:50:45;3.40;;;1.20;;
67747;SDS011;54543;50.712;6.070;2023-02-26T15:53:17;1.45;;;0.98;;
67747;SDS011;54543;50.712;6.070;2023-02-26T15:55:52;1.67;;;1.05;;
67747;SDS011;54543;50.712;6.070;2023-02-26T15:58:42;4.00;;;1.45;;
67747;SDS011;54543;50.712;6.070;2023-02-26T16:01:19;2.47;;;1.30;;
67747;SDS011;54543;50.712;6.070;2023-02-26T16:03:46;1.42;;;0.93;;
67747;SDS011;54543;50.712;6.070;2023-02-26T16:06:18;2.92;;;1.35;;
67747;SDS011;54543;50.712;6.070;2023-02-26T16:08:48;2.15;;;1.10;;
67747;SDS011;54543;50.712;6.070;2023-02-26T16:11:14;2.08;;;1.02;;
67747;SDS011;54543;50.712;6.070;2023-02-26T16:13:40;2.13;;;1.00;;
67747;SDS011;54543;50.712;6.070;2023-02-26T16:16:11;1.05;;;0.70;;
67747;SDS011;54543;50.712;6.070;2023-02-26T16:18:41;0.88;;;0.82;;
67747;SDS011;54543;50.712;6.070;2023-02-26T16:21:10;1.17;;;0.90;;
67747;SDS011;54543;50.712;6.070;2023-02-26T16:23:51;1.27;;;0.75;;
67747;SDS011;54543;50.712;6.070;2023-02-26T16:26:23;0.98;;;0.80;;
67747;SDS011;54543;50.712;6.070;2023-02-26T16:28:55;1.73;;;0.90;;
67747;SDS011;54543;50.712;6.070;2023-02-26T16:31:27;3.65;;;1.88;;
67747;SDS011;54543;50.712;6.070;2023-02-26T16:34:01;1.90;;;1.30;;
67747;SDS011;54543;50.712;6.070;2023-02-26T16:36:46;3.95;;;1.20;;
67747;SDS011;54543;50.712;6.070;2023-02-26T16:39:14;2.70;;;1.40;;
67747;SDS011;54543;50.712;6.070;2023-02-26T16:41:46;2.83;;;1.15;;
67747;SDS011;54543;50.712;6.070;2023-02-26T16:44:34;1.85;;;1.20;;
67747;SDS011;54543;50.712;6.070;2023-02-26T16:47:03;1.27;;;1.00;;
67747;SDS011;54543;50.712;6.070;2023-02-26T16:49:31;1.48;;;1.20;;
67747;SDS011;54543;50.712;6.070;2023-02-26T16:51:58;2.03;;;1.15;;
67747;SDS011;54543;50.712;6.070;2023-02-26T16:54:48;2.08;;;1.10;;
67747;SDS011;54543;50.712;6.070;2023-02-26T16:57:18;1.60;;;1.10;;
67747;SDS011;54543;50.712;6.070;2023-02-26T16:59:52;1.33;;;0.88;;
67747;SDS011;54543;50.712;6.070;2023-02-26T17:02:21;2.05;;;1.05;;
67747;SDS011;54543;50.712;6.070;2023-02-26T17:04:51;2.08;;;1.38;;
67747;SDS011;54543;50.712;6.070;2023-02-26T17:07:24;2.25;;;1.10;;
67747;SDS011;54543;50.712;6.070;2023-02-26T17:09:54;4.18;;;1.00;;
67747;SDS011;54543;50.712;6.070;2023-02-26T17:12:38;1.45;;;0.93;;
67747;SDS011;54543;50.712;6.070;2023-02-26T17:15:17;1.25;;;0.90;;
67747;SDS011;54543;50.712;6.070;2023-02-26T17:17:54;1.17;;;1.05;;
67747;SDS011;54543;50.712;6.070;2023-02-26T17:20:22;1.70;;;1.30;;
67747;SDS011;54543;50.712;6.070;2023-02-26T17:22:52;2.95;;;1.90;;
67747;SDS011;54543;50.712;6.070;2023-02-26T17:25:19;2.97;;;1.60;;
67747;SDS011;54543;50.712;6.070;2023-02-26T17:27:45;4.15;;;1.98;;
67747;SDS011;54543;50.712;6.070;2023-02-26T17:30:13;4.10;;;1.70;;
67747;SDS011;54543;50.712;6.070;2023-02-26T17:32:41;2.42;;;1.65;;
67747;SDS011;54543;50.712;6.070;2023-02-26T17:35:07;2.47;;;1.60;;
67747;SDS011;54543;50.712;6.070;2023-02-26T17:37:33;4.22;;;1.70;;
67747;SDS011;54543;50.712;6.070;2023-02-26T17:40:00;3.42;;;1.70;;
67747;SDS011;54543;50.712;6.070;2023-02-26T17:42:26;2.42;;;1.60;;
67747;SDS011;54543;50.712;6.070;2023-02-26T17:44:52;3.08;;;1.65;;
67747;SDS011;54543;50.712;6.070;2023-02-26T17:47:22;2.67;;;1.35;;
67747;SDS011;54543;50.712;6.070;2023-02-26T17:49:49;2.00;;;1.40;;
67747;SDS011;54543;50.712;6.070;2023-02-26T17:52:15;2.20;;;1.63;;
67747;SDS011;54543;50.712;6.070;2023-02-26T17:54:41;1.95;;;1.45;;
67747;SDS011;54543;50.712;6.070;2023-02-26T17:57:17;3.45;;;1.20;;
67747;SDS011;54543;50.712;6.070;2023-02-26T17:59:44;1.50;;;1.20;;
67747;SDS011;54543;50.712;6.070;2023-02-26T18:02:17;3.15;;;1.17;;
67747;SDS011;54543;50.712;6.070;2023-02-26T18:04:46;2.35;;;1.48;;
67747;SDS011;54543;50.712;6.070;2023-02-26T18:07:13;1.58;;;1.15;;
67747;SDS011;54543;50.712;6.070;2023-02-26T18:09:41;2.20;;;1.27;;
67747;SDS011;54543;50.712;6.070;2023-02-26T18:12:10;4.05;;;1.90;;